Pagina principală
METAR-TAF:

METAR-TAF

Aeroporturi :

Seghedin, Ungaria

Latitudine: 46-15N, longitudine: 020-06E, elevație: 82 m

Observații meteo curente

Raportul a fost făcut în urmă cu 45 de minute, la 06:15 UTC
Vânt 3 kt de la Nord-vest
Temperatură 22°C
Umiditate 69%
Presiune 1013 hPa
Vizibilitate de 10 km sau mai mult
nu există nori sub 1.500 m și nici cumulonimbus

METAR: LHUD 160615Z 31003KT CAVOK 22/16 Q1013

Ora: 09:00 (07:00 UTC)


TAF: lipsă

Observații și prognoze meteo pentru peste 4.000 de aeroporturi (rapoarte METAR și TAF).

Stațiile disponibile sunt reprezentate pe hartă prin puncte galbene și roșii.

Țineți indicatorul mouse-ului pe punctul dorit pentru a vedea denumirea stației.

Apoi, faceți clic pentru a vedea observațiile și prognozele meteorologice.

Pentru a schimba harta: Pentru mărire, faceți clic pe butoanele verzi cu cruce neagră; pentru micșorare, pe butonul verde cu o liniuță; pentru hărți învecinate, pe săgețile verzi.


METAR-TAF: